PWSweather.com
Personal Weather Stations
Station Observations

GerenaES 41860

Lat: 37.530965, Lon: -6.150384

Elevation: 120

Station Type: Vantage VUE

http://meteogerena.blogspot.com.es/

High Low Average
Temperature 59.0°F15.0°C 47.5°F8.6°C 53.1°F11.7°C
Dew Point 47.5°F8.6°C 39.4°F4.1°C 42.5°F5.8°C
Winds 14.0 mph 22.5 kmh 6.0 mph 9.7 kmh 10.0 mph NE16.1 kmh NE
Wind Gusts 28.0 mph45.1 kmh 12.0 mph19.3 kmh 20.0 mph32.2 kmh
Humidity 75% 55% 67%
Pressure 29.78 in1008.5 mb 29.64 in1003.7 mb -
Precipitation 0.63 in16.0 mm - -
Hour Temp Dew Point Humidity Winds Wind Gusts Pressure Precip Precip Rate Daily Precip Total
11:32 AM 56.5°F13.6°C 46.8°F8.2°C 70% 9.0 mph NE14.5 kmh NE 12.0 mph19.3 kmh 29.66 in1004.4 mb 0.00 in0.0 mm 0.00 in0.0 mm 0.62 in15.7 mm
11:33 AM 56.5°F13.6°C 46.8°F8.2°C 70% 9.0 mph NE14.5 kmh NE 12.0 mph19.3 kmh 29.66 in1004.4 mb 0.00 in0.0 mm 0.00 in0.0 mm 0.62 in15.7 mm
11:34 AM 56.7°F13.7°C 47.4°F8.6°C 71% 9.0 mph NE14.5 kmh NE 13.0 mph20.9 kmh 29.66 in1004.4 mb 0.00 in0.0 mm 0.00 in0.0 mm 0.62 in15.7 mm
11:35 AM 56.7°F13.7°C 47.0°F8.3°C 70% 8.0 mph NE12.9 kmh NE 13.0 mph20.9 kmh 29.66 in1004.4 mb 0.00 in0.0 mm 0.00 in0.0 mm 0.62 in15.7 mm
11:36 AM 56.8°F13.8°C 47.5°F8.6°C 71% 8.0 mph NE12.9 kmh NE 13.0 mph20.9 kmh 29.66 in1004.4 mb 0.00 in0.0 mm 0.00 in0.0 mm 0.62 in15.7 mm
11:37 AM 56.8°F13.8°C 47.2°F8.4°C 70% 8.0 mph NE12.9 kmh NE 14.0 mph22.5 kmh 29.66 in1004.4 mb 0.00 in0.0 mm 0.00 in0.0 mm 0.62 in15.7 mm
11:38 AM 56.8°F13.8°C 47.2°F8.4°C 70% 8.0 mph NE12.9 kmh NE 14.0 mph22.5 kmh 29.66 in1004.4 mb 0.00 in0.0 mm 0.00 in0.0 mm 0.62 in15.7 mm
11:39 AM 56.8°F13.8°C 47.2°F8.4°C 70% 8.0 mph NE12.9 kmh NE 14.0 mph22.5 kmh 29.66 in1004.4 mb 0.00 in0.0 mm 0.00 in0.0 mm 0.62 in15.7 mm
11:40 AM 56.8°F13.8°C 47.2°F8.4°C 70% 8.0 mph NE12.9 kmh NE 14.0 mph22.5 kmh 29.66 in1004.4 mb 0.00 in0.0 mm 0.00 in0.0 mm 0.62 in15.7 mm
11:41 AM 56.8°F13.8°C 46.8°F8.2°C 69% 8.0 mph NE12.9 kmh NE 14.0 mph22.5 kmh 29.66 in1004.4 mb 0.00 in0.0 mm 0.00 in0.0 mm 0.62 in15.7 mm
11:42 AM 56.8°F13.8°C 46.8°F8.2°C 69% 8.0 mph NE12.9 kmh NE 16.0 mph25.7 kmh 29.66 in1004.4 mb 0.00 in0.0 mm 0.00 in0.0 mm 0.62 in15.7 mm
11:43 AM 56.7°F13.7°C 46.6°F8.1°C 69% 8.0 mph NE12.9 kmh NE 17.0 mph27.4 kmh 29.66 in1004.4 mb 0.00 in0.0 mm 0.00 in0.0 mm 0.62 in15.7 mm
11:44 AM 56.8°F13.8°C 47.2°F8.4°C 70% 8.0 mph NE12.9 kmh NE 17.0 mph27.4 kmh 29.66 in1004.4 mb 0.00 in0.0 mm 0.00 in0.0 mm 0.62 in15.7 mm
11:45 AM 56.8°F13.8°C 47.2°F8.4°C 70% 8.0 mph NE12.9 kmh NE 17.0 mph27.4 kmh 29.66 in1004.4 mb 0.00 in0.0 mm 0.00 in0.0 mm 0.62 in15.7 mm
11:46 AM 56.8°F13.8°C 46.8°F8.2°C 69% 8.0 mph NE12.9 kmh NE 17.0 mph27.4 kmh 29.66 in1004.4 mb 0.00 in0.0 mm 0.00 in0.0 mm 0.62 in15.7 mm
11:47 AM 56.8°F13.8°C 46.8°F8.2°C 69% 8.0 mph NE12.9 kmh NE 17.0 mph27.4 kmh 29.66 in1004.4 mb 0.00 in0.0 mm 0.00 in0.0 mm 0.62 in15.7 mm
11:48 AM 56.8°F13.8°C 46.8°F8.2°C 69% 9.0 mph NE14.5 kmh NE 22.0 mph35.4 kmh 29.66 in1004.4 mb 0.00 in0.0 mm 0.00 in0.0 mm 0.62 in15.7 mm
11:49 AM 56.8°F13.8°C 46.0°F7.8°C 67% 9.0 mph NE14.5 kmh NE 22.0 mph35.4 kmh 29.66 in1004.4 mb 0.00 in0.0 mm 0.00 in0.0 mm 0.62 in15.7 mm
11:50 AM 56.8°F13.8°C 46.0°F7.8°C 67% 9.0 mph NE14.5 kmh NE 22.0 mph35.4 kmh 29.66 in1004.4 mb 0.00 in0.0 mm 0.00 in0.0 mm 0.62 in15.7 mm
11:51 AM 57.0°F13.9°C 46.6°F8.1°C 68% 9.0 mph NE14.5 kmh NE 22.0 mph35.4 kmh 29.66 in1004.4 mb 0.00 in0.0 mm 0.00 in0.0 mm 0.62 in15.7 mm
11:52 AM 57.0°F13.9°C 46.6°F8.1°C 68% 9.0 mph NE14.5 kmh NE 22.0 mph35.4 kmh 29.66 in1004.4 mb 0.00 in0.0 mm 0.00 in0.0 mm 0.62 in15.7 mm
11:53 AM 57.0°F13.9°C 46.9°F8.3°C 69% 9.0 mph NE14.5 kmh NE 22.0 mph35.4 kmh 29.66 in1004.4 mb 0.00 in0.0 mm 0.00 in0.0 mm 0.62 in15.7 mm
11:54 AM 57.0°F13.9°C 46.6°F8.1°C 68% 9.0 mph NE14.5 kmh NE 22.0 mph35.4 kmh 29.66 in1004.4 mb 0.00 in0.0 mm 0.00 in0.0 mm 0.62 in15.7 mm
11:55 AM 57.0°F13.9°C 46.2°F7.9°C 67% 9.0 mph NE14.5 kmh NE 22.0 mph35.4 kmh 29.66 in1004.4 mb 0.00 in0.0 mm 0.00 in0.0 mm 0.62 in15.7 mm
11:56 AM 57.0°F13.9°C 46.2°F7.9°C 67% 9.0 mph NE14.5 kmh NE 22.0 mph35.4 kmh 29.66 in1004.4 mb 0.00 in0.0 mm 0.00 in0.0 mm 0.62 in15.7 mm
11:57 AM 57.0°F13.9°C 46.6°F8.1°C 68% 9.0 mph NE14.5 kmh NE 22.0 mph35.4 kmh 29.66 in1004.4 mb 0.00 in0.0 mm 0.00 in0.0 mm 0.62 in15.7 mm
11:58 AM 57.0°F13.9°C 46.2°F7.9°C 67% 9.0 mph NE14.5 kmh NE 16.0 mph25.7 kmh 29.66 in1004.4 mb 0.00 in0.0 mm 0.00 in0.0 mm 0.62 in15.7 mm
11:59 AM 57.0°F13.9°C 46.2°F7.9°C 67% 8.0 mph NE12.9 kmh NE 16.0 mph25.7 kmh 29.66 in1004.4 mb 0.00 in0.0 mm 0.00 in0.0 mm 0.62 in15.7 mm
12:00 PM 56.8°F13.8°C 46.0°F7.8°C 67% 8.0 mph NE12.9 kmh NE 16.0 mph25.7 kmh 29.66 in1004.4 mb 0.00 in0.0 mm 0.00 in0.0 mm 0.62 in15.7 mm
12:01 PM 57.0°F13.9°C 46.2°F7.9°C 67% 8.0 mph NE12.9 kmh NE 18.0 mph29.0 kmh 29.66 in1004.4 mb 0.00 in0.0 mm 0.00 in0.0 mm 0.62 in15.7 mm
12:02 PM 57.0°F13.9°C 45.8°F7.7°C 66% 8.0 mph NE12.9 kmh NE 18.0 mph29.0 kmh 29.66 in1004.4 mb 0.00 in0.0 mm 0.00 in0.0 mm 0.62 in15.7 mm
12:03 PM 57.0°F13.9°C 45.8°F7.7°C 66% 8.0 mph NE12.9 kmh NE 18.0 mph29.0 kmh 29.66 in1004.4 mb 0.00 in0.0 mm 0.00 in0.0 mm 0.62 in15.7 mm
12:04 PM 57.0°F13.9°C 45.8°F7.7°C 66% 8.0 mph NE12.9 kmh NE 18.0 mph29.0 kmh 29.66 in1004.4 mb 0.00 in0.0 mm 0.00 in0.0 mm 0.62 in15.7 mm
12:05 PM 57.4°F14.1°C 45.3°F7.4°C 64% 8.0 mph NE12.9 kmh NE 21.0 mph33.8 kmh 29.66 in1004.4 mb 0.00 in0.0 mm 0.00 in0.0 mm 0.62 in15.7 mm
12:06 PM 57.4°F14.1°C 45.3°F7.4°C 64% 9.0 mph NE14.5 kmh NE 21.0 mph33.8 kmh 29.66 in1004.4 mb 0.00 in0.0 mm 0.00 in0.0 mm 0.62 in15.7 mm
12:07 PM 57.4°F14.1°C 45.3°F7.4°C 64% 9.0 mph NE14.5 kmh NE 21.0 mph33.8 kmh 29.66 in1004.4 mb 0.00 in0.0 mm 0.00 in0.0 mm 0.62 in15.7 mm
12:08 PM 57.4°F14.1°C 45.3°F7.4°C 64% 9.0 mph NE14.5 kmh NE 21.0 mph33.8 kmh 29.66 in1004.4 mb 0.00 in0.0 mm 0.00 in0.0 mm 0.62 in15.7 mm
12:09 PM 57.6°F14.2°C 45.5°F7.5°C 64% 9.0 mph NE14.5 kmh NE 21.0 mph33.8 kmh 29.66 in1004.4 mb 0.00 in0.0 mm 0.00 in0.0 mm 0.62 in15.7 mm
12:10 PM 57.4°F14.1°C 44.5°F6.9°C 62% 9.0 mph NE14.5 kmh NE 21.0 mph33.8 kmh 29.67 in1004.7 mb 0.00 in0.0 mm 0.00 in0.0 mm 0.62 in15.7 mm
12:11 PM 57.4°F14.1°C 44.9°F7.2°C 63% 9.0 mph NNE14.5 kmh NNE 21.0 mph33.8 kmh 29.66 in1004.4 mb 0.00 in0.0 mm 0.00 in0.0 mm 0.62 in15.7 mm
12:12 PM 57.6°F14.2°C 45.1°F7.3°C 63% 10.0 mph NNE16.1 kmh NNE 21.0 mph33.8 kmh 29.67 in1004.7 mb 0.00 in0.0 mm 0.00 in0.0 mm 0.62 in15.7 mm
12:13 PM 57.6°F14.2°C 45.5°F7.5°C 64% 10.0 mph NNE16.1 kmh NNE 21.0 mph33.8 kmh 29.66 in1004.4 mb 0.00 in0.0 mm 0.00 in0.0 mm 0.62 in15.7 mm
12:14 PM 57.6°F14.2°C 45.1°F7.3°C 63% 10.0 mph NNE16.1 kmh NNE 27.0 mph43.5 kmh 29.66 in1004.4 mb 0.00 in0.0 mm 0.00 in0.0 mm 0.62 in15.7 mm
12:15 PM 57.6°F14.2°C 44.6°F7.0°C 62% 10.0 mph NNE16.1 kmh NNE 27.0 mph43.5 kmh 29.66 in1004.4 mb 0.00 in0.0 mm 0.00 in0.0 mm 0.62 in15.7 mm
12:16 PM 57.4°F14.1°C 44.5°F6.9°C 62% 10.0 mph NNE16.1 kmh NNE 27.0 mph43.5 kmh 29.67 in1004.7 mb 0.00 in0.0 mm 0.00 in0.0 mm 0.62 in15.7 mm
12:17 PM 57.4°F14.1°C 44.5°F6.9°C 62% 10.0 mph NNE16.1 kmh NNE 27.0 mph43.5 kmh 29.66 in1004.4 mb 0.00 in0.0 mm 0.00 in0.0 mm 0.62 in15.7 mm
12:18 PM 57.4°F14.1°C 44.0°F6.7°C 61% 11.0 mph NNE17.7 kmh NNE 27.0 mph43.5 kmh 29.66 in1004.4 mb 0.00 in0.0 mm 0.00 in0.0 mm 0.62 in15.7 mm
12:19 PM 57.4°F14.1°C 44.0°F6.7°C 61% 11.0 mph NNE17.7 kmh NNE 27.0 mph43.5 kmh 29.66 in1004.4 mb 0.00 in0.0 mm 0.00 in0.0 mm 0.62 in15.7 mm
12:20 PM 57.4°F14.1°C 44.0°F6.7°C 61% 11.0 mph NE17.7 kmh NE 27.0 mph43.5 kmh 29.66 in1004.4 mb 0.00 in0.0 mm 0.00 in0.0 mm 0.62 in15.7 mm
12:21 PM 57.4°F14.1°C 44.5°F6.9°C 62% 12.0 mph NE19.3 kmh NE 27.0 mph43.5 kmh 29.66 in1004.4 mb 0.00 in0.0 mm 0.00 in0.0 mm 0.62 in15.7 mm
12:22 PM 57.4°F14.1°C 44.9°F7.2°C 63% 12.0 mph NE19.3 kmh NE 27.0 mph43.5 kmh 29.66 in1004.4 mb 0.00 in0.0 mm 0.00 in0.0 mm 0.62 in15.7 mm
12:23 PM 57.4°F14.1°C 44.5°F6.9°C 62% 12.0 mph NE19.3 kmh NE 27.0 mph43.5 kmh 29.66 in1004.4 mb 0.00 in0.0 mm 0.00 in0.0 mm 0.62 in15.7 mm
12:24 PM 57.6°F14.2°C 44.6°F7.0°C 62% 12.0 mph NNE19.3 kmh NNE 26.0 mph41.8 kmh 29.66 in1004.4 mb 0.00 in0.0 mm 0.00 in0.0 mm 0.62 in15.7 mm
12:25 PM 57.6°F14.2°C 44.6°F7.0°C 62% 12.0 mph NNE19.3 kmh NNE 26.0 mph41.8 kmh 29.66 in1004.4 mb 0.00 in0.0 mm 0.00 in0.0 mm 0.62 in15.7 mm
12:26 PM 57.6°F14.2°C 44.6°F7.0°C 62% 12.0 mph NNE19.3 kmh NNE 26.0 mph41.8 kmh 29.66 in1004.4 mb 0.00 in0.0 mm 0.00 in0.0 mm 0.62 in15.7 mm
12:27 PM 57.6°F14.2°C 44.6°F7.0°C 62% 12.0 mph NNE19.3 kmh NNE 26.0 mph41.8 kmh 29.66 in1004.4 mb 0.00 in0.0 mm 0.00 in0.0 mm 0.62 in15.7 mm
12:28 PM 57.6°F14.2°C 44.6°F7.0°C 62% 12.0 mph NNE19.3 kmh NNE 26.0 mph41.8 kmh 29.66 in1004.4 mb 0.00 in0.0 mm 0.00 in0.0 mm 0.62 in15.7 mm
12:29 PM 57.6°F14.2°C 44.6°F7.0°C 62% 12.0 mph NNE19.3 kmh NNE 26.0 mph41.8 kmh 29.66 in1004.4 mb 0.00 in0.0 mm 0.00 in0.0 mm 0.62 in15.7 mm
12:30 PM 57.7°F14.3°C 44.8°F7.1°C 62% 12.0 mph NNE19.3 kmh NNE 26.0 mph41.8 kmh 29.66 in1004.4 mb 0.00 in0.0 mm 0.00 in0.0 mm 0.62 in15.7 mm
12:31 PM 57.7°F14.3°C 44.4°F6.9°C 61% 12.0 mph NNE19.3 kmh NNE 26.0 mph41.8 kmh 29.66 in1004.4 mb 0.00 in0.0 mm 0.00 in0.0 mm 0.62 in15.7 mm
12:32 PM 57.7°F14.3°C 43.9°F6.6°C 60% 12.0 mph NE19.3 kmh NE 26.0 mph41.8 kmh 29.66 in1004.4 mb 0.00 in0.0 mm 0.00 in0.0 mm 0.62 in15.7 mm
12:33 PM 57.7°F14.3°C 43.5°F6.4°C 59% 12.0 mph NE19.3 kmh NE 21.0 mph33.8 kmh 29.66 in1004.4 mb 0.00 in0.0 mm 0.00 in0.0 mm 0.62 in15.7 mm
12:34 PM 57.9°F14.4°C 43.2°F6.2°C 58% 12.0 mph NE19.3 kmh NE 22.0 mph35.4 kmh 29.66 in1004.4 mb 0.00 in0.0 mm 0.00 in0.0 mm 0.62 in15.7 mm
12:35 PM 57.9°F14.4°C 43.2°F6.2°C 58% 12.0 mph NE19.3 kmh NE 23.0 mph37.0 kmh 29.66 in1004.4 mb 0.00 in0.0 mm 0.00 in0.0 mm 0.62 in15.7 mm
12:36 PM 57.9°F14.4°C 44.1°F6.7°C 60% 12.0 mph NE19.3 kmh NE 23.0 mph37.0 kmh 29.66 in1004.4 mb 0.00 in0.0 mm 0.00 in0.0 mm 0.62 in15.7 mm
12:37 PM 58.1°F14.5°C 44.7°F7.1°C 61% 12.0 mph NE19.3 kmh NE 23.0 mph37.0 kmh 29.66 in1004.4 mb 0.00 in0.0 mm 0.00 in0.0 mm 0.62 in15.7 mm
12:38 PM 58.1°F14.5°C 43.8°F6.6°C 59% 12.0 mph NE19.3 kmh NE 23.0 mph37.0 kmh 29.66 in1004.4 mb 0.00 in0.0 mm 0.00 in0.0 mm 0.62 in15.7 mm
12:39 PM 58.3°F14.6°C 44.0°F6.7°C 59% 12.0 mph NE19.3 kmh NE 24.0 mph38.6 kmh 29.66 in1004.4 mb 0.00 in0.0 mm 0.00 in0.0 mm 0.62 in15.7 mm
12:40 PM 58.3°F14.6°C 44.4°F6.9°C 60% 12.0 mph NE19.3 kmh NE 24.0 mph38.6 kmh 29.66 in1004.4 mb 0.00 in0.0 mm 0.00 in0.0 mm 0.62 in15.7 mm
12:41 PM 58.3°F14.6°C 44.4°F6.9°C 60% 12.0 mph NE19.3 kmh NE 24.0 mph38.6 kmh 29.66 in1004.4 mb 0.00 in0.0 mm 0.00 in0.0 mm 0.62 in15.7 mm
12:42 PM 58.3°F14.6°C 43.6°F6.4°C 58% 12.0 mph NNE19.3 kmh NNE 24.0 mph38.6 kmh 29.66 in1004.4 mb 0.00 in0.0 mm 0.00 in0.0 mm 0.62 in15.7 mm
12:43 PM 58.3°F14.6°C 44.0°F6.7°C 59% 12.0 mph NNE19.3 kmh NNE 24.0 mph38.6 kmh 29.65 in1004.1 mb 0.00 in0.0 mm 0.00 in0.0 mm 0.62 in15.7 mm
12:44 PM 58.3°F14.6°C 44.0°F6.7°C 59% 12.0 mph NNE19.3 kmh NNE 24.0 mph38.6 kmh 29.65 in1004.1 mb 0.00 in0.0 mm 0.00 in0.0 mm 0.62 in15.7 mm
12:45 PM 58.5°F14.7°C 44.2°F6.8°C 59% 12.0 mph NNE19.3 kmh NNE 24.0 mph38.6 kmh 29.65 in1004.1 mb 0.00 in0.0 mm 0.00 in0.0 mm 0.62 in15.7 mm
12:46 PM 58.5°F14.7°C 43.7°F6.5°C 58% 12.0 mph NNE19.3 kmh NNE 24.0 mph38.6 kmh 29.65 in1004.1 mb 0.00 in0.0 mm 0.00 in0.0 mm 0.62 in15.7 mm
12:47 PM 58.5°F14.7°C 43.7°F6.5°C 58% 12.0 mph NNE19.3 kmh NNE 24.0 mph38.6 kmh 29.65 in1004.1 mb 0.00 in0.0 mm 0.00 in0.0 mm 0.62 in15.7 mm
12:48 PM 58.3°F14.6°C 43.6°F6.4°C 58% 12.0 mph NNE19.3 kmh NNE 24.0 mph38.6 kmh 29.65 in1004.1 mb 0.00 in0.0 mm 0.00 in0.0 mm 0.62 in15.7 mm
12:49 PM 58.3°F14.6°C 43.6°F6.4°C 58% 12.0 mph N19.3 kmh N 24.0 mph38.6 kmh 29.65 in1004.1 mb 0.00 in0.0 mm 0.00 in0.0 mm 0.62 in15.7 mm
12:50 PM 58.3°F14.6°C 44.0°F6.7°C 59% 12.0 mph N19.3 kmh N 24.0 mph38.6 kmh 29.65 in1004.1 mb 0.00 in0.0 mm 0.00 in0.0 mm 0.62 in15.7 mm
12:51 PM 58.5°F14.7°C 44.2°F6.8°C 59% 12.0 mph N19.3 kmh N 24.0 mph38.6 kmh 29.65 in1004.1 mb 0.00 in0.0 mm 0.00 in0.0 mm 0.62 in15.7 mm
12:52 PM 58.5°F14.7°C 44.6°F7.0°C 60% 12.0 mph NNE19.3 kmh NNE 24.0 mph38.6 kmh 29.65 in1004.1 mb 0.00 in0.0 mm 0.00 in0.0 mm 0.62 in15.7 mm
12:53 PM 58.5°F14.7°C 44.2°F6.8°C 59% 12.0 mph N19.3 kmh N 24.0 mph38.6 kmh 29.65 in1004.1 mb 0.00 in0.0 mm 0.00 in0.0 mm 0.62 in15.7 mm
12:54 PM 58.5°F14.7°C 44.2°F6.8°C 59% 12.0 mph N19.3 kmh N 24.0 mph38.6 kmh 29.65 in1004.1 mb 0.00 in0.0 mm 0.00 in0.0 mm 0.62 in15.7 mm
12:55 PM 58.5°F14.7°C 43.7°F6.5°C 58% 12.0 mph N19.3 kmh N 24.0 mph38.6 kmh 29.65 in1004.1 mb 0.00 in0.0 mm 0.00 in0.0 mm 0.62 in15.7 mm
12:56 PM 58.3°F14.6°C 43.6°F6.4°C 58% 12.0 mph N19.3 kmh N 24.0 mph38.6 kmh 29.65 in1004.1 mb 0.00 in0.0 mm 0.00 in0.0 mm 0.62 in15.7 mm
12:57 PM 58.5°F14.7°C 44.2°F6.8°C 59% 12.0 mph N19.3 kmh N 24.0 mph38.6 kmh 29.65 in1004.1 mb 0.00 in0.0 mm 0.00 in0.0 mm 0.62 in15.7 mm
12:58 PM 58.5°F14.7°C 44.2°F6.8°C 59% 12.0 mph NNE19.3 kmh NNE 24.0 mph38.6 kmh 29.65 in1004.1 mb 0.00 in0.0 mm 0.00 in0.0 mm 0.62 in15.7 mm
12:59 PM 58.6°F14.8°C 44.3°F6.8°C 59% 12.0 mph NNE19.3 kmh NNE 24.0 mph38.6 kmh 29.64 in1003.7 mb 0.00 in0.0 mm 0.00 in0.0 mm 0.62 in15.7 mm
01:00 PM 58.6°F14.8°C 43.9°F6.6°C 58% 12.0 mph NNE19.3 kmh NNE 24.0 mph38.6 kmh 29.64 in1003.7 mb 0.00 in0.0 mm 0.00 in0.0 mm 0.62 in15.7 mm
01:01 PM 58.6°F14.8°C 44.3°F6.8°C 59% 12.0 mph N19.3 kmh N 25.0 mph40.2 kmh 29.64 in1003.7 mb 0.00 in0.0 mm 0.00 in0.0 mm 0.62 in15.7 mm
01:02 PM 58.6°F14.8°C 43.9°F6.6°C 58% 12.0 mph N19.3 kmh N 25.0 mph40.2 kmh 29.64 in1003.7 mb 0.00 in0.0 mm 0.00 in0.0 mm 0.62 in15.7 mm
01:03 PM 58.5°F14.7°C 44.2°F6.8°C 59% 13.0 mph N20.9 kmh N 25.0 mph40.2 kmh 29.65 in1004.1 mb 0.00 in0.0 mm 0.00 in0.0 mm 0.62 in15.7 mm
01:04 PM 58.6°F14.8°C 44.3°F6.8°C 59% 13.0 mph NNE20.9 kmh NNE 25.0 mph40.2 kmh 29.65 in1004.1 mb 0.00 in0.0 mm 0.00 in0.0 mm 0.62 in15.7 mm
01:05 PM 58.6°F14.8°C 44.8°F7.1°C 60% 13.0 mph NNE20.9 kmh NNE 25.0 mph40.2 kmh 29.64 in1003.7 mb 0.00 in0.0 mm 0.00 in0.0 mm 0.62 in15.7 mm
01:06 PM 58.8°F14.9°C 44.5°F6.9°C 59% 13.0 mph NNE20.9 kmh NNE 25.0 mph40.2 kmh 29.64 in1003.7 mb 0.00 in0.0 mm 0.00 in0.0 mm 0.62 in15.7 mm
01:07 PM 58.8°F14.9°C 43.6°F6.4°C 57% 13.0 mph NNE20.9 kmh NNE 25.0 mph40.2 kmh 29.64 in1003.7 mb 0.00 in0.0 mm 0.00 in0.0 mm 0.62 in15.7 mm
01:08 PM 58.8°F14.9°C 44.1°F6.7°C 58% 13.0 mph NNE20.9 kmh NNE 25.0 mph40.2 kmh 29.64 in1003.7 mb 0.00 in0.0 mm 0.00 in0.0 mm 0.62 in15.7 mm
01:09 PM 59.0°F15.0°C 44.7°F7.1°C 59% 13.0 mph NNE20.9 kmh NNE 25.0 mph40.2 kmh 29.64 in1003.7 mb 0.00 in0.0 mm 0.00 in0.0 mm 0.62 in15.7 mm
01:10 PM 58.8°F14.9°C 43.6°F6.4°C 57% 13.0 mph NNE20.9 kmh NNE 25.0 mph40.2 kmh 29.65 in1004.1 mb 0.00 in0.0 mm 0.00 in0.0 mm 0.62 in15.7 mm
01:11 PM 58.6°F14.8°C 43.0°F6.1°C 56% 13.0 mph NNE20.9 kmh NNE 27.0 mph43.5 kmh 29.64 in1003.7 mb 0.00 in0.0 mm 0.00 in0.0 mm 0.62 in15.7 mm
01:12 PM 58.6°F14.8°C 42.5°F5.8°C 55% 13.0 mph NNE20.9 kmh NNE 27.0 mph43.5 kmh 29.64 in1003.7 mb 0.00 in0.0 mm 0.00 in0.0 mm 0.62 in15.7 mm
01:13 PM 58.6°F14.8°C 43.0°F6.1°C 56% 13.0 mph NNE20.9 kmh NNE 27.0 mph43.5 kmh 29.64 in1003.7 mb 0.00 in0.0 mm 0.00 in0.0 mm 0.62 in15.7 mm
01:14 PM 58.6°F14.8°C 43.4°F6.3°C 57% 13.0 mph N20.9 kmh N 27.0 mph43.5 kmh 29.64 in1003.7 mb 0.00 in0.0 mm 0.00 in0.0 mm 0.62 in15.7 mm
01:15 PM 58.6°F14.8°C 43.0°F6.1°C 56% 13.0 mph N20.9 kmh N 27.0 mph43.5 kmh 29.64 in1003.7 mb 0.00 in0.0 mm 0.00 in0.0 mm 0.62 in15.7 mm
01:16 PM 58.6°F14.8°C 43.0°F6.1°C 56% 13.0 mph N20.9 kmh N 27.0 mph43.5 kmh 29.64 in1003.7 mb 0.00 in0.0 mm 0.00 in0.0 mm 0.62 in15.7 mm
01:17 PM 58.5°F14.7°C 43.3°F6.3°C 57% 13.0 mph N20.9 kmh N 27.0 mph43.5 kmh 29.64 in1003.7 mb 0.00 in0.0 mm 0.00 in0.0 mm 0.62 in15.7 mm
01:18 PM 58.6°F14.8°C 43.4°F6.3°C 57% 13.0 mph N20.9 kmh N 27.0 mph43.5 kmh 29.64 in1003.7 mb 0.00 in0.0 mm 0.00 in0.0 mm 0.62 in15.7 mm
01:19 PM 58.6°F14.8°C 43.4°F6.3°C 57% 13.0 mph N20.9 kmh N 27.0 mph43.5 kmh 29.64 in1003.7 mb 0.00 in0.0 mm 0.00 in0.0 mm 0.62 in15.7 mm
01:20 PM 58.5°F14.7°C 42.8°F6.0°C 56% 13.0 mph N20.9 kmh N 27.0 mph43.5 kmh 29.64 in1003.7 mb 0.00 in0.0 mm 0.00 in0.0 mm 0.62 in15.7 mm
01:21 PM 58.5°F14.7°C 43.7°F6.5°C 58% 14.0 mph N22.5 kmh N 27.0 mph43.5 kmh 29.64 in1003.7 mb 0.00 in0.0 mm 0.00 in0.0 mm 0.62 in15.7 mm
01:22 PM 58.6°F14.8°C 44.3°F6.8°C 59% 14.0 mph N22.5 kmh N 27.0 mph43.5 kmh 29.64 in1003.7 mb 0.00 in0.0 mm 0.00 in0.0 mm 0.62 in15.7 mm
08:28 PM 50.7°F10.4°C 41.3°F5.2°C 70% 8.0 mph NE12.9 kmh NE 16.0 mph25.7 kmh 29.72 in1006.4 mb 0.00 in0.0 mm 0.00 in0.0 mm 0.63 in16.0 mm
08:29 PM 50.7°F10.4°C 41.7°F5.4°C 71% 7.0 mph NE11.3 kmh NE 13.0 mph20.9 kmh 29.72 in1006.4 mb 0.00 in0.0 mm 0.00 in0.0 mm 0.63 in16.0 mm
08:30 PM 50.7°F10.4°C 41.7°F5.4°C 71% 7.0 mph NE11.3 kmh NE 13.0 mph20.9 kmh 29.72 in1006.4 mb 0.00 in0.0 mm 0.00 in0.0 mm 0.63 in16.0 mm
08:31 PM 50.7°F10.4°C 41.7°F5.4°C 71% 7.0 mph NE11.3 kmh NE 13.0 mph20.9 kmh 29.72 in1006.4 mb 0.00 in0.0 mm 0.00 in0.0 mm 0.63 in16.0 mm
08:32 PM 50.5°F10.3°C 41.5°F5.3°C 71% 7.0 mph NE11.3 kmh NE 13.0 mph20.9 kmh 29.72 in1006.4 mb 0.00 in0.0 mm 0.00 in0.0 mm 0.63 in16.0 mm
08:33 PM 50.5°F10.3°C 41.5°F5.3°C 71% 7.0 mph NE11.3 kmh NE 13.0 mph20.9 kmh 29.73 in1006.8 mb 0.00 in0.0 mm 0.00 in0.0 mm 0.63 in16.0 mm
08:34 PM 50.5°F10.3°C 41.5°F5.3°C 71% 7.0 mph NE11.3 kmh NE 15.0 mph24.1 kmh 29.73 in1006.8 mb 0.00 in0.0 mm 0.00 in0.0 mm 0.63 in16.0 mm
08:35 PM 50.5°F10.3°C 41.5°F5.3°C 71% 7.0 mph NE11.3 kmh NE 15.0 mph24.1 kmh 29.73 in1006.8 mb 0.00 in0.0 mm 0.00 in0.0 mm 0.63 in16.0 mm
08:36 PM 50.5°F10.3°C 41.8°F5.4°C 72% 7.0 mph NE11.3 kmh NE 15.0 mph24.1 kmh 29.73 in1006.8 mb 0.00 in0.0 mm 0.00 in0.0 mm 0.63 in16.0 mm
08:37 PM 50.5°F10.3°C 41.8°F5.4°C 72% 7.0 mph NE11.3 kmh NE 15.0 mph24.1 kmh 29.73 in1006.8 mb 0.00 in0.0 mm 0.00 in0.0 mm 0.63 in16.0 mm
08:38 PM 50.5°F10.3°C 41.8°F5.4°C 72% 7.0 mph NE11.3 kmh NE 15.0 mph24.1 kmh 29.73 in1006.8 mb 0.00 in0.0 mm 0.00 in0.0 mm 0.63 in16.0 mm
08:39 PM 50.5°F10.3°C 41.8°F5.4°C 72% 7.0 mph NE11.3 kmh NE 15.0 mph24.1 kmh 29.73 in1006.8 mb 0.00 in0.0 mm 0.00 in0.0 mm 0.63 in16.0 mm
08:40 PM 50.5°F10.3°C 41.8°F5.4°C 72% 7.0 mph NE11.3 kmh NE 15.0 mph24.1 kmh 29.73 in1006.8 mb 0.00 in0.0 mm 0.00 in0.0 mm 0.63 in16.0 mm
08:41 PM 50.5°F10.3°C 41.8°F5.4°C 72% 7.0 mph NE11.3 kmh NE 15.0 mph24.1 kmh 29.73 in1006.8 mb 0.00 in0.0 mm 0.00 in0.0 mm 0.63 in16.0 mm
08:42 PM 50.5°F10.3°C 41.8°F5.4°C 72% 7.0 mph NE11.3 kmh NE 15.0 mph24.1 kmh 29.74 in1007.1 mb 0.00 in0.0 mm 0.00 in0.0 mm 0.63 in16.0 mm
08:43 PM 50.5°F10.3°C 41.8°F5.4°C 72% 7.0 mph NE11.3 kmh NE 15.0 mph24.1 kmh 29.74 in1007.1 mb 0.00 in0.0 mm 0.00 in0.0 mm 0.63 in16.0 mm
08:44 PM 50.5°F10.3°C 41.8°F5.4°C 72% 7.0 mph NE11.3 kmh NE 16.0 mph25.7 kmh 29.74 in1007.1 mb 0.00 in0.0 mm 0.00 in0.0 mm 0.63 in16.0 mm
08:45 PM 50.7°F10.4°C 41.3°F5.2°C 70% 7.0 mph NE11.3 kmh NE 28.0 mph45.1 kmh 29.74 in1007.1 mb 0.00 in0.0 mm 0.00 in0.0 mm 0.63 in16.0 mm
08:46 PM 50.7°F10.4°C 41.3°F5.2°C 70% 7.0 mph NE11.3 kmh NE 28.0 mph45.1 kmh 29.74 in1007.1 mb 0.00 in0.0 mm 0.00 in0.0 mm 0.63 in16.0 mm
08:47 PM 50.7°F10.4°C 41.3°F5.2°C 70% 8.0 mph NE12.9 kmh NE 28.0 mph45.1 kmh 29.74 in1007.1 mb 0.00 in0.0 mm 0.00 in0.0 mm 0.63 in16.0 mm
08:48 PM 50.7°F10.4°C 41.3°F5.2°C 70% 8.0 mph NE12.9 kmh NE 28.0 mph45.1 kmh 29.74 in1007.1 mb 0.00 in0.0 mm 0.00 in0.0 mm 0.63 in16.0 mm
08:49 PM 50.5°F10.3°C 41.1°F5.1°C 70% 8.0 mph NE12.9 kmh NE 28.0 mph45.1 kmh 29.74 in1007.1 mb 0.00 in0.0 mm 0.00 in0.0 mm 0.63 in16.0 mm
08:50 PM 50.4°F10.2°C 40.6°F4.8°C 69% 8.0 mph NE12.9 kmh NE 28.0 mph45.1 kmh 29.74 in1007.1 mb 0.00 in0.0 mm 0.00 in0.0 mm 0.63 in16.0 mm
08:51 PM 50.2°F10.1°C 40.4°F4.7°C 69% 9.0 mph NE14.5 kmh NE 28.0 mph45.1 kmh 29.74 in1007.1 mb 0.00 in0.0 mm 0.00 in0.0 mm 0.63 in16.0 mm
08:52 PM 50.0°F10.0°C 40.2°F4.6°C 69% 10.0 mph NE16.1 kmh NE 28.0 mph45.1 kmh 29.74 in1007.1 mb 0.00 in0.0 mm 0.00 in0.0 mm 0.63 in16.0 mm
08:53 PM 49.8°F9.9°C 40.1°F4.5°C 69% 10.0 mph NE16.1 kmh NE 28.0 mph45.1 kmh 29.74 in1007.1 mb 0.00 in0.0 mm 0.00 in0.0 mm 0.63 in16.0 mm
08:54 PM 49.8°F9.9°C 40.1°F4.5°C 69% 11.0 mph NE17.7 kmh NE 28.0 mph45.1 kmh 29.74 in1007.1 mb 0.00 in0.0 mm 0.00 in0.0 mm 0.63 in16.0 mm
08:55 PM 49.6°F9.8°C 39.9°F4.4°C 69% 12.0 mph NE19.3 kmh NE 28.0 mph45.1 kmh 29.75 in1007.5 mb 0.00 in0.0 mm 0.00 in0.0 mm 0.63 in16.0 mm
08:56 PM 49.5°F9.7°C 39.7°F4.3°C 69% 13.0 mph NE20.9 kmh NE 28.0 mph45.1 kmh 29.74 in1007.1 mb 0.00 in0.0 mm 0.00 in0.0 mm 0.63 in16.0 mm
08:57 PM 49.5°F9.7°C 40.1°F4.5°C 70% 13.0 mph NE20.9 kmh NE 28.0 mph45.1 kmh 29.75 in1007.5 mb 0.00 in0.0 mm 0.00 in0.0 mm 0.63 in16.0 mm
08:58 PM 49.3°F9.6°C 39.9°F4.4°C 70% 14.0 mph NE22.5 kmh NE 28.0 mph45.1 kmh 29.75 in1007.5 mb 0.00 in0.0 mm 0.00 in0.0 mm 0.63 in16.0 mm
08:59 PM 49.3°F9.6°C 39.9°F4.4°C 70% 14.0 mph NE22.5 kmh NE 28.0 mph45.1 kmh 29.75 in1007.5 mb 0.00 in0.0 mm 0.00 in0.0 mm 0.63 in16.0 mm
09:00 PM 48.9°F9.4°C 39.6°F4.2°C 70% 14.0 mph NE22.5 kmh NE 28.0 mph45.1 kmh 29.75 in1007.5 mb 0.00 in0.0 mm 0.00 in0.0 mm 0.63 in16.0 mm
09:01 PM 48.9°F9.4°C 39.6°F4.2°C 70% 14.0 mph NNE22.5 kmh NNE 28.0 mph45.1 kmh 29.75 in1007.5 mb 0.00 in0.0 mm 0.00 in0.0 mm 0.63 in16.0 mm
09:02 PM 48.7°F9.3°C 39.8°F4.3°C 71% 14.0 mph NNE22.5 kmh NNE 28.0 mph45.1 kmh 29.75 in1007.5 mb 0.00 in0.0 mm 0.00 in0.0 mm 0.63 in16.0 mm
09:03 PM 48.7°F9.3°C 39.8°F4.3°C 71% 14.0 mph NE22.5 kmh NE 26.0 mph41.8 kmh 29.75 in1007.5 mb 0.00 in0.0 mm 0.00 in0.0 mm 0.63 in16.0 mm
09:04 PM 48.6°F9.2°C 39.6°F4.2°C 71% 14.0 mph NE22.5 kmh NE 23.0 mph37.0 kmh 29.75 in1007.5 mb 0.00 in0.0 mm 0.00 in0.0 mm 0.63 in16.0 mm
09:05 PM 48.6°F9.2°C 39.9°F4.4°C 72% 14.0 mph NE22.5 kmh NE 23.0 mph37.0 kmh 29.75 in1007.5 mb 0.00 in0.0 mm 0.00 in0.0 mm 0.63 in16.0 mm
09:06 PM 48.4°F9.1°C 39.8°F4.3°C 72% 14.0 mph NE22.5 kmh NE 23.0 mph37.0 kmh 29.74 in1007.1 mb 0.00 in0.0 mm 0.00 in0.0 mm 0.63 in16.0 mm
09:07 PM 48.4°F9.1°C 39.8°F4.3°C 72% 14.0 mph NE22.5 kmh NE 23.0 mph37.0 kmh 29.74 in1007.1 mb 0.00 in0.0 mm 0.00 in0.0 mm 0.63 in16.0 mm
09:08 PM 48.2°F9.0°C 39.9°F4.4°C 73% 13.0 mph NE20.9 kmh NE 23.0 mph37.0 kmh 29.74 in1007.1 mb 0.00 in0.0 mm 0.00 in0.0 mm 0.63 in16.0 mm
09:09 PM 48.2°F9.0°C 39.9°F4.4°C 73% 13.0 mph NE20.9 kmh NE 23.0 mph37.0 kmh 29.74 in1007.1 mb 0.00 in0.0 mm 0.00 in0.0 mm 0.63 in16.0 mm
09:10 PM 48.0°F8.9°C 39.8°F4.3°C 73% 12.0 mph NE19.3 kmh NE 18.0 mph29.0 kmh 29.74 in1007.1 mb 0.00 in0.0 mm 0.00 in0.0 mm 0.63 in16.0 mm
09:11 PM 48.0°F8.9°C 39.8°F4.3°C 73% 12.0 mph NE19.3 kmh NE 17.0 mph27.4 kmh 29.74 in1007.1 mb 0.00 in0.0 mm 0.00 in0.0 mm 0.63 in16.0 mm
09:12 PM 48.0°F8.9°C 39.8°F4.3°C 73% 12.0 mph NE19.3 kmh NE 17.0 mph27.4 kmh 29.74 in1007.1 mb 0.00 in0.0 mm 0.00 in0.0 mm 0.63 in16.0 mm
09:13 PM 48.0°F8.9°C 39.8°F4.3°C 73% 11.0 mph NE17.7 kmh NE 16.0 mph25.7 kmh 29.74 in1007.1 mb 0.00 in0.0 mm 0.00 in0.0 mm 0.63 in16.0 mm
09:14 PM 47.8°F8.8°C 40.0°F4.4°C 74% 11.0 mph NE17.7 kmh NE 16.0 mph25.7 kmh 29.74 in1007.1 mb 0.00 in0.0 mm 0.00 in0.0 mm 0.63 in16.0 mm
09:15 PM 47.8°F8.8°C 40.0°F4.4°C 74% 10.0 mph NE16.1 kmh NE 16.0 mph25.7 kmh 29.73 in1006.8 mb 0.00 in0.0 mm 0.00 in0.0 mm 0.63 in16.0 mm
09:16 PM 47.8°F8.8°C 40.0°F4.4°C 74% 10.0 mph NE16.1 kmh NE 16.0 mph25.7 kmh 29.74 in1007.1 mb 0.00 in0.0 mm 0.00 in0.0 mm 0.63 in16.0 mm
09:17 PM 47.8°F8.8°C 40.0°F4.4°C 74% 9.0 mph NE14.5 kmh NE 16.0 mph25.7 kmh 29.74 in1007.1 mb 0.00 in0.0 mm 0.00 in0.0 mm 0.63 in16.0 mm
09:18 PM 47.8°F8.8°C 40.0°F4.4°C 74% 9.0 mph NE14.5 kmh NE 16.0 mph25.7 kmh 29.74 in1007.1 mb 0.00 in0.0 mm 0.00 in0.0 mm 0.63 in16.0 mm
09:19 PM 47.7°F8.7°C 39.8°F4.3°C 74% 9.0 mph NE14.5 kmh NE 16.0 mph25.7 kmh 29.74 in1007.1 mb 0.00 in0.0 mm 0.00 in0.0 mm 0.63 in16.0 mm
09:20 PM 47.7°F8.7°C 39.8°F4.3°C 74% 8.0 mph NE12.9 kmh NE 14.0 mph22.5 kmh 29.74 in1007.1 mb 0.00 in0.0 mm 0.00 in0.0 mm 0.63 in16.0 mm
09:21 PM 47.7°F8.7°C 39.8°F4.3°C 74% 8.0 mph NE12.9 kmh NE 13.0 mph20.9 kmh 29.74 in1007.1 mb 0.00 in0.0 mm 0.00 in0.0 mm 0.63 in16.0 mm
09:22 PM 47.5°F8.6°C 39.6°F4.2°C 74% 8.0 mph NE12.9 kmh NE 13.0 mph20.9 kmh 29.74 in1007.1 mb 0.00 in0.0 mm 0.00 in0.0 mm 0.63 in16.0 mm
09:23 PM 47.5°F8.6°C 39.6°F4.2°C 74% 7.0 mph NE11.3 kmh NE 13.0 mph20.9 kmh 29.74 in1007.1 mb 0.00 in0.0 mm 0.00 in0.0 mm 0.63 in16.0 mm
09:24 PM 47.5°F8.6°C 39.6°F4.2°C 74% 7.0 mph NE11.3 kmh NE 13.0 mph20.9 kmh 29.74 in1007.1 mb 0.00 in0.0 mm 0.00 in0.0 mm 0.63 in16.0 mm
09:25 PM 47.5°F8.6°C 39.6°F4.2°C 74% 7.0 mph NE11.3 kmh NE 13.0 mph20.9 kmh 29.74 in1007.1 mb 0.00 in0.0 mm 0.00 in0.0 mm 0.63 in16.0 mm
09:26 PM 47.5°F8.6°C 39.6°F4.2°C 74% 7.0 mph NE11.3 kmh NE 13.0 mph20.9 kmh 29.75 in1007.5 mb 0.00 in0.0 mm 0.00 in0.0 mm 0.63 in16.0 mm
09:27 PM 47.5°F8.6°C 39.6°F4.2°C 74% 6.0 mph NE9.7 kmh NE 13.0 mph20.9 kmh 29.75 in1007.5 mb 0.00 in0.0 mm 0.00 in0.0 mm 0.63 in16.0 mm
09:28 PM 47.5°F8.6°C 39.6°F4.2°C 74% 6.0 mph NE9.7 kmh NE 12.0 mph19.3 kmh 29.75 in1007.5 mb 0.00 in0.0 mm 0.00 in0.0 mm 0.63 in16.0 mm
09:29 PM 47.5°F8.6°C 39.6°F4.2°C 74% 6.0 mph NE9.7 kmh NE 12.0 mph19.3 kmh 29.75 in1007.5 mb 0.00 in0.0 mm 0.00 in0.0 mm 0.63 in16.0 mm
09:30 PM 47.5°F8.6°C 39.6°F4.2°C 74% 6.0 mph NE9.7 kmh NE 12.0 mph19.3 kmh 29.75 in1007.5 mb 0.00 in0.0 mm 0.00 in0.0 mm 0.63 in16.0 mm
09:31 PM 47.5°F8.6°C 39.6°F4.2°C 74% 6.0 mph NE9.7 kmh NE 12.0 mph19.3 kmh 29.75 in1007.5 mb 0.00 in0.0 mm 0.00 in0.0 mm 0.63 in16.0 mm
09:32 PM 47.7°F8.7°C 39.8°F4.3°C 74% 6.0 mph NE9.7 kmh NE 12.0 mph19.3 kmh 29.75 in1007.5 mb 0.00 in0.0 mm 0.00 in0.0 mm 0.63 in16.0 mm
09:33 PM 47.7°F8.7°C 39.8°F4.3°C 74% 6.0 mph NE9.7 kmh NE 14.0 mph22.5 kmh 29.75 in1007.5 mb 0.00 in0.0 mm 0.00 in0.0 mm 0.63 in16.0 mm
09:34 PM 47.7°F8.7°C 39.4°F4.1°C 73% 6.0 mph NE9.7 kmh NE 14.0 mph22.5 kmh 29.75 in1007.5 mb 0.00 in0.0 mm 0.00 in0.0 mm 0.63 in16.0 mm
09:35 PM 47.7°F8.7°C 39.4°F4.1°C 73% 6.0 mph NE9.7 kmh NE 14.0 mph22.5 kmh 29.75 in1007.5 mb 0.00 in0.0 mm 0.00 in0.0 mm 0.63 in16.0 mm
09:36 PM 47.8°F8.8°C 39.6°F4.2°C 73% 6.0 mph NE9.7 kmh NE 14.0 mph22.5 kmh 29.75 in1007.5 mb 0.00 in0.0 mm 0.00 in0.0 mm 0.63 in16.0 mm
09:37 PM 47.8°F8.8°C 39.6°F4.2°C 73% 6.0 mph NE9.7 kmh NE 14.0 mph22.5 kmh 29.75 in1007.5 mb 0.00 in0.0 mm 0.00 in0.0 mm 0.63 in16.0 mm
09:38 PM 47.8°F8.8°C 39.6°F4.2°C 73% 6.0 mph NE9.7 kmh NE 15.0 mph24.1 kmh 29.75 in1007.5 mb 0.00 in0.0 mm 0.00 in0.0 mm 0.63 in16.0 mm
09:39 PM 47.8°F8.8°C 39.6°F4.2°C 73% 6.0 mph NE9.7 kmh NE 15.0 mph24.1 kmh 29.75 in1007.5 mb 0.00 in0.0 mm 0.00 in0.0 mm 0.63 in16.0 mm
09:40 PM 47.8°F8.8°C 39.6°F4.2°C 73% 6.0 mph NE9.7 kmh NE 15.0 mph24.1 kmh 29.75 in1007.5 mb 0.00 in0.0 mm 0.00 in0.0 mm 0.63 in16.0 mm
09:41 PM 47.8°F8.8°C 39.6°F4.2°C 73% 6.0 mph NE9.7 kmh NE 15.0 mph24.1 kmh 29.75 in1007.5 mb 0.00 in0.0 mm 0.00 in0.0 mm 0.63 in16.0 mm
09:42 PM 47.8°F8.8°C 39.6°F4.2°C 73% 6.0 mph NE9.7 kmh NE 15.0 mph24.1 kmh 29.75 in1007.5 mb 0.00 in0.0 mm 0.00 in0.0 mm 0.63 in16.0 mm
09:43 PM 48.0°F8.9°C 39.4°F4.1°C 72% 6.0 mph NE9.7 kmh NE 15.0 mph24.1 kmh 29.75 in1007.5 mb 0.00 in0.0 mm 0.00 in0.0 mm 0.63 in16.0 mm
09:44 PM 48.0°F8.9°C 39.4°F4.1°C 72% 6.0 mph NE9.7 kmh NE 15.0 mph24.1 kmh 29.75 in1007.5 mb 0.00 in0.0 mm 0.00 in0.0 mm 0.63 in16.0 mm
09:45 PM 48.0°F8.9°C 39.4°F4.1°C 72% 6.0 mph NE9.7 kmh NE 15.0 mph24.1 kmh 29.75 in1007.5 mb 0.00 in0.0 mm 0.00 in0.0 mm 0.63 in16.0 mm
09:46 PM 48.0°F8.9°C 39.4°F4.1°C 72% 6.0 mph NE9.7 kmh NE 15.0 mph24.1 kmh 29.75 in1007.5 mb 0.00 in0.0 mm 0.00 in0.0 mm 0.63 in16.0 mm
09:47 PM 48.2°F9.0°C 39.6°F4.2°C 72% 6.0 mph NE9.7 kmh NE 15.0 mph24.1 kmh 29.76 in1007.8 mb 0.00 in0.0 mm 0.00 in0.0 mm 0.63 in16.0 mm
09:48 PM 48.2°F9.0°C 39.6°F4.2°C 72% 7.0 mph NE11.3 kmh NE 14.0 mph22.5 kmh 29.76 in1007.8 mb 0.00 in0.0 mm 0.00 in0.0 mm 0.63 in16.0 mm
09:49 PM 48.2°F9.0°C 39.6°F4.2°C 72% 7.0 mph NE11.3 kmh NE 14.0 mph22.5 kmh 29.76 in1007.8 mb 0.00 in0.0 mm 0.00 in0.0 mm 0.63 in16.0 mm
09:50 PM 48.2°F9.0°C 39.6°F4.2°C 72% 7.0 mph NE11.3 kmh NE 18.0 mph29.0 kmh 29.76 in1007.8 mb 0.00 in0.0 mm 0.00 in0.0 mm 0.63 in16.0 mm
09:51 PM 48.2°F9.0°C 39.6°F4.2°C 72% 7.0 mph NE11.3 kmh NE 18.0 mph29.0 kmh 29.76 in1007.8 mb 0.00 in0.0 mm 0.00 in0.0 mm 0.63 in16.0 mm
09:52 PM 48.2°F9.0°C 39.6°F4.2°C 72% 7.0 mph NE11.3 kmh NE 18.0 mph29.0 kmh 29.76 in1007.8 mb 0.00 in0.0 mm 0.00 in0.0 mm 0.63 in16.0 mm
09:53 PM 48.2°F9.0°C 39.6°F4.2°C 72% 7.0 mph NE11.3 kmh NE 18.0 mph29.0 kmh 29.76 in1007.8 mb 0.00 in0.0 mm 0.00 in0.0 mm 0.63 in16.0 mm
09:54 PM 48.2°F9.0°C 39.6°F4.2°C 72% 7.0 mph NE11.3 kmh NE 18.0 mph29.0 kmh 29.76 in1007.8 mb 0.00 in0.0 mm 0.00 in0.0 mm 0.63 in16.0 mm
09:55 PM 48.2°F9.0°C 39.6°F4.2°C 72% 8.0 mph NE12.9 kmh NE 18.0 mph29.0 kmh 29.76 in1007.8 mb 0.00 in0.0 mm 0.00 in0.0 mm 0.63 in16.0 mm
09:56 PM 48.2°F9.0°C 39.9°F4.4°C 73% 8.0 mph NE12.9 kmh NE 18.0 mph29.0 kmh 29.76 in1007.8 mb 0.00 in0.0 mm 0.00 in0.0 mm 0.63 in16.0 mm
09:57 PM 48.0°F8.9°C 39.8°F4.3°C 73% 8.0 mph NE12.9 kmh NE 18.0 mph29.0 kmh 29.77 in1008.1 mb 0.00 in0.0 mm 0.00 in0.0 mm 0.63 in16.0 mm
09:58 PM 48.0°F8.9°C 39.8°F4.3°C 73% 8.0 mph NE12.9 kmh NE 18.0 mph29.0 kmh 29.77 in1008.1 mb 0.00 in0.0 mm 0.00 in0.0 mm 0.63 in16.0 mm
09:59 PM 48.0°F8.9°C 39.8°F4.3°C 73% 8.0 mph NE12.9 kmh NE 18.0 mph29.0 kmh 29.77 in1008.1 mb 0.00 in0.0 mm 0.00 in0.0 mm 0.63 in16.0 mm
10:00 PM 48.0°F8.9°C 39.8°F4.3°C 73% 8.0 mph NE12.9 kmh NE 20.0 mph32.2 kmh 29.77 in1008.1 mb 0.00 in0.0 mm 0.00 in0.0 mm 0.63 in16.0 mm
10:01 PM 48.0°F8.9°C 39.8°F4.3°C 73% 8.0 mph NE12.9 kmh NE 20.0 mph32.2 kmh 29.77 in1008.1 mb 0.00 in0.0 mm 0.00 in0.0 mm 0.63 in16.0 mm
10:02 PM 48.0°F8.9°C 39.8°F4.3°C 73% 8.0 mph NE12.9 kmh NE 20.0 mph32.2 kmh 29.77 in1008.1 mb 0.00 in0.0 mm 0.00 in0.0 mm 0.63 in16.0 mm
10:03 PM 48.0°F8.9°C 39.8°F4.3°C 73% 8.0 mph NE12.9 kmh NE 20.0 mph32.2 kmh 29.77 in1008.1 mb 0.00 in0.0 mm 0.00 in0.0 mm 0.63 in16.0 mm
10:04 PM 48.0°F8.9°C 39.8°F4.3°C 73% 8.0 mph NE12.9 kmh NE 20.0 mph32.2 kmh 29.77 in1008.1 mb 0.00 in0.0 mm 0.00 in0.0 mm 0.63 in16.0 mm
10:05 PM 48.0°F8.9°C 39.8°F4.3°C 73% 8.0 mph NE12.9 kmh NE 20.0 mph32.2 kmh 29.77 in1008.1 mb 0.00 in0.0 mm 0.00 in0.0 mm 0.63 in16.0 mm
10:06 PM 48.0°F8.9°C 39.8°F4.3°C 73% 8.0 mph NE12.9 kmh NE 20.0 mph32.2 kmh 29.77 in1008.1 mb 0.00 in0.0 mm 0.00 in0.0 mm 0.63 in16.0 mm
10:07 PM 47.8°F8.8°C 40.0°F4.4°C 74% 8.0 mph NE12.9 kmh NE 20.0 mph32.2 kmh 29.77 in1008.1 mb 0.00 in0.0 mm 0.00 in0.0 mm 0.63 in16.0 mm
10:08 PM 47.8°F8.8°C 40.0°F4.4°C 74% 8.0 mph NE12.9 kmh NE 20.0 mph32.2 kmh 29.77 in1008.1 mb 0.00 in0.0 mm 0.00 in0.0 mm 0.63 in16.0 mm
10:09 PM 47.8°F8.8°C 40.0°F4.4°C 74% 8.0 mph NE12.9 kmh NE 20.0 mph32.2 kmh 29.77 in1008.1 mb 0.00 in0.0 mm 0.00 in0.0 mm 0.63 in16.0 mm
10:10 PM 47.8°F8.8°C 40.0°F4.4°C 74% 8.0 mph NE12.9 kmh NE 17.0 mph27.4 kmh 29.77 in1008.1 mb 0.00 in0.0 mm 0.00 in0.0 mm 0.63 in16.0 mm
10:11 PM 47.8°F8.8°C 40.0°F4.4°C 74% 8.0 mph NE12.9 kmh NE 16.0 mph25.7 kmh 29.77 in1008.1 mb 0.00 in0.0 mm 0.00 in0.0 mm 0.63 in16.0 mm
10:12 PM 47.8°F8.8°C 40.0°F4.4°C 74% 8.0 mph NE12.9 kmh NE 16.0 mph25.7 kmh 29.77 in1008.1 mb 0.00 in0.0 mm 0.00 in0.0 mm 0.63 in16.0 mm
10:13 PM 47.8°F8.8°C 40.0°F4.4°C 74% 8.0 mph NE12.9 kmh NE 16.0 mph25.7 kmh 29.77 in1008.1 mb 0.00 in0.0 mm 0.00 in0.0 mm 0.63 in16.0 mm
10:14 PM 47.8°F8.8°C 40.0°F4.4°C 74% 8.0 mph NE12.9 kmh NE 16.0 mph25.7 kmh 29.77 in1008.1 mb 0.00 in0.0 mm 0.00 in0.0 mm 0.63 in16.0 mm
10:15 PM 47.8°F8.8°C 40.0°F4.4°C 74% 8.0 mph NE12.9 kmh NE 16.0 mph25.7 kmh 29.77 in1008.1 mb 0.00 in0.0 mm 0.00 in0.0 mm 0.63 in16.0 mm
10:16 PM 47.8°F8.8°C 40.3°F4.6°C 75% 8.0 mph NE12.9 kmh NE 16.0 mph25.7 kmh 29.77 in1008.1 mb 0.00 in0.0 mm 0.00 in0.0 mm 0.63 in16.0 mm
10:17 PM 47.7°F8.7°C 40.1°F4.5°C 75% 8.0 mph NE12.9 kmh NE 16.0 mph25.7 kmh 29.77 in1008.1 mb 0.00 in0.0 mm 0.00 in0.0 mm 0.63 in16.0 mm
10:18 PM 47.7°F8.7°C 40.1°F4.5°C 75% 8.0 mph NE12.9 kmh NE 16.0 mph25.7 kmh 29.78 in1008.5 mb 0.00 in0.0 mm 0.00 in0.0 mm 0.63 in16.0 mm
10:19 PM 47.7°F8.7°C 40.1°F4.5°C 75% 7.0 mph NE11.3 kmh NE 16.0 mph25.7 kmh 29.77 in1008.1 mb 0.00 in0.0 mm 0.00 in0.0 mm 0.63 in16.0 mm
10:20 PM 47.7°F8.7°C 40.1°F4.5°C 75% 7.0 mph NE11.3 kmh NE 13.0 mph20.9 kmh 29.78 in1008.5 mb 0.00 in0.0 mm 0.00 in0.0 mm 0.63 in16.0 mm
10:21 PM 47.7°F8.7°C 40.1°F4.5°C 75% 7.0 mph NE11.3 kmh NE 13.0 mph20.9 kmh 29.77 in1008.1 mb 0.00 in0.0 mm 0.00 in0.0 mm 0.63 in16.0 mm